Weather observations for the past three days for
Topeka, Philip Billard Municipal Airport
Imperial (Metric)
Date Time (cdt) Wind (mph) Vis. (mi.) Weather Sky Cond. Temperature (ºF) Relative Humidity Wind Chill (°F) Heat Index (°F) Pressure Precipitation (in)
Air Dwpt 6 hour altimeter (in) sea level (mb) 1 hr 3 hr 6 hr
Max. Min.
03 23:53 SE 5 10.00 Fair CLR 63 48 58% 29.73 1005.9
03 22:53 N 6 10.00 Fair CLR 61 50 67% 29.75 1006.9
03 21:53 E 3 10.00 Fair CLR 66 50 56% 29.74 1006.5
03 20:53 E 5 10.00 Fair CLR 66.9 51.1 57% 29.74 1006.6
03 19:53 NE 6 10.00 Fair CLR 72 51.1 48% 29.74 1006.5
03 18:53 NE 3 10.00 Fair CLR 75 51.1 81 73.9 43% 78 29.75 1007.0
03 17:53 N 5 10.00 Fair CLR 78.1 52 40% 79 29.77 1007.6
03 16:53 NW 8 10.00 Fair CLR 81 48 32% 80 29.78 1007.9
03 15:53 NW 6 10.00 Fair CLR 81 46 29% 80 29.81 1008.9
03 14:53 W 8 10.00 Fair CLR 80.1 46.9 31% 79 29.84 1009.8
03 13:53 W 12 10.00 Fair CLR 79 46.9 32% 79 29.85 1010.4
03 12:53 W 9 G 22 10.00 Fair CLR 77 45 77 51.1 32% 78 29.87 1011.2
03 11:53 W 16 G 22 10.00 Fair CLR 75 46 36% 77 29.9 1011.9
03 10:53 W 7 10.00 Fair CLR 70 46 42% 29.93 1013.0
03 09:53 SW 10 G 22 10.00 Fair CLR 64.9 44.1 47% 29.92 1012.9
03 08:53 S 9 10.00 Fair CLR 61 41 48% 29.94 1013.6
03 07:53 SW 8 10.00 Fair CLR 55 37.9 53% 29.95 1013.9
03 06:53 Vrbl 3 10.00 Fair CLR 51.1 36 52 50 56% 29.95 1013.8
03 05:53 S 6 10.00 Fair CLR 51.1 33.1 50% 29.96 1014.1
03 04:53 S 10 10.00 Fair CLR 51.1 32 48% 29.97 1014.7
03 03:53 S 7 10.00 Fair CLR 52 33.1 49% 29.98 1015.0
03 02:53 S 8 10.00 Fair CLR 51.1 33.1 50% 29.99 1015.3
03 01:53 S 8 10.00 Fair CLR 50 33.1 52% 47 30.01 1016.0
03 00:53 S 7 10.00 Fair CLR 51.1 34 64 50 52% 30.02 1016.6
02 23:53 S 8 10.00 Fair CLR 52 34 50% 30.04 1017.1
02 22:53 S 6 10.00 Fair CLR 52 33.1 49% 30.05 1017.5
02 21:53 S 6 10.00 Fair CLR 54 35.1 49% 30.07 1018.1
02 20:53 S 3 10.00 Fair CLR 55.9 32 40% 30.07 1018.1
02 19:53 SW 3 10.00 Fair CLR 62.1 27 26% 30.06 1018.0
02 18:53 SW 5 10.00 Fair CLR 64 28 66 59 26% 30.07 1018.5
02 17:53 NW 3 10.00 Fair CLR 64.9 27 24% 30.08 1018.8
02 16:53 NW 3 10.00 Fair CLR 64.9 28 25% 30.1 1019.2
02 15:53 NW 7 10.00 Fair CLR 64 30 28% 30.12 1019.8
02 14:53 Vrbl 7 10.00 Fair CLR 62.1 28.9 29% 30.13 1020.4
02 13:53 Vrbl 5 10.00 Fair CLR 61 28.9 30% 30.16 1021.3
02 12:53 Vrbl 6 10.00 Fair CLR 59 28 61 35.1 31% 30.18 1021.9
02 11:53 NW 7 10.00 Fair CLR 59 28 31% 30.2 1022.5
02 10:53 N 10 10.00 Fair CLR 57 28.9 34% 30.2 1022.6
02 09:53 NW 6 10.00 Fair CLR 55 30.9 40% 30.2 1022.6
02 08:53 Vrbl 3 10.00 Fair CLR 48.9 33.1 55% 30.2 1022.6
02 07:53 Calm 10.00 Fair CLR 42.1 35.1 76% 30.19 1022.4
02 06:53 Calm 10.00 Fair CLR 35.1 30.9 46.9 34 85% 30.17 1021.8
02 05:53 Calm 10.00 Fair CLR 37 30.9 79% 30.15 1021.2
02 04:53 SW 3 10.00 Fair CLR 39.9 30.9 70% 30.15 1020.8
02 03:53 NW 5 10.00 Fair CLR 41 30 65% 38 30.14 1020.6
02 02:53 W 3 10.00 Fair CLR 42.1 28.9 60% 30.13 1020.2
02 01:53 Calm 10.00 Fair CLR 44.1 30 58% 30.13 1020.3
02 00:53 NE 3 10.00 Fair CLR 46.9 28.9 61 45 50% 30.13 1020.3
01 23:53 N 6 10.00 Fair CLR 46.9 30 52% 45 30.12 1019.9
01 22:53 N 8 10.00 Fair CLR 48.9 30.9 50% 46 30.11 1019.6
01 21:53 N 8 10.00 Fair CLR 51.1 34 52% 30.1 1019.0
01 20:53 N 5 10.00 Fair CLR 54 36 51% 30.05 1017.7
01 19:53 N 7 10.00 Fair CLR 55.9 36 47% 30.04 1017.2
01 18:53 N 7 10.00 Partly Cloudy SCT100 61 33.1 66.9 61 35% 30.02 1016.6
01 17:53 NW 5 G 18 10.00 Overcast OVC090 64 35.1 34% 30.01 1016.3
01 16:53 W 14 G 21 10.00 Partly Cloudy SCT120 64.9 33.1 31% 30.02 1016.5
01 15:53 NW 14 G 20 10.00 Mostly Cloudy BKN110 64 36 35% 30.05 1017.5
01 14:53 NW 13 G 25 10.00 Partly Cloudy FEW090 SCT110 64.9 32 29% 30.06 1018.0
01 13:53 NW 12 G 18 10.00 Mostly Cloudy SCT080 BKN095 64.9 35.1 33% 30.07 1018.1
01 12:53 Vrbl 7 10.00 Fair CLR 64 33.1 64 36 32% 30.08 1018.6
01 11:53 W 8 10.00 Fair CLR 62.1 34 35% 30.1 1019.2
01 10:53 W 8 10.00 Fair CLR 59 32 36% 30.11 1019.4
01 09:53 Vrbl 3 10.00 Fair CLR 57 35.1 44% 30.1 1019.3
01 08:53 S 5 10.00 Fair CLR 50 37.9 63% 49 30.1 1019.3
01 07:53 Calm 7.00 Fair CLR 44.1 41 89% 30.1 1019.5
01 06:53 Calm 9.00 Fair CLR 36 34 46.9 36 93% 30.1 1019.6
01 05:53 Calm 9.00 Fair CLR 37 36 96% 30.1 1019.4
01 04:53 Calm 10.00 Fair CLR 37.9 35.1 89% 30.1 1019.5
01 03:53 Calm 10.00 Fair CLR 39 36 89% 30.1 1019.2
01 02:53 Calm 10.00 Fair CLR 42.1 37 82% 30.11 1019.7
01 01:53 Calm 10.00 Fair CLR 45 36 71% 30.13 1020.1
01 00:53 N 3 10.00 Mostly Cloudy BKN075 46.9 37 60.1 46.9 69% 30.13 1020.0
Date Time (cdt) Wind (mph) Vis. (mi.) Weather Sky Cond. Air Dwpt Max. Min. Relative Humidity Wind Chill (°F) Heat Index (°F) altimeter (in) sea level (mb) 1 hr 3 hr 6 hr
6 hour
Temperature (ºF) Pressure Precipitation (in)